sensor_id;sensor_type;location;lat;lon;timestamp;P1;durP1;ratioP1;P2;durP2;ratioP2
83634;SDS011;73596;49.482;11.238;2024-02-21T00:01:15;2.43;;;1.27;;
83634;SDS011;73596;49.482;11.238;2024-02-21T00:03:41;1.95;;;1.15;;
83634;SDS011;73596;49.482;11.238;2024-02-21T00:06:06;3.17;;;1.10;;
83634;SDS011;73596;49.482;11.238;2024-02-21T00:08:32;1.33;;;0.80;;
83634;SDS011;73596;49.482;11.238;2024-02-21T00:10:57;3.20;;;0.77;;
83634;SDS011;73596;49.482;11.238;2024-02-21T00:13:22;1.97;;;1.00;;
83634;SDS011;73596;49.482;11.238;2024-02-21T00:15:47;2.50;;;1.10;;
83634;SDS011;73596;49.482;11.238;2024-02-21T00:18:13;3.87;;;1.60;;
83634;SDS011;73596;49.482;11.238;2024-02-21T00:20:38;2.40;;;1.40;;
83634;SDS011;73596;49.482;11.238;2024-02-21T00:23:03;3.37;;;1.10;;
83634;SDS011;73596;49.482;11.238;2024-02-21T00:25:29;3.47;;;1.10;;
83634;SDS011;73596;49.482;11.238;2024-02-21T00:27:54;1.73;;;0.97;;
83634;SDS011;73596;49.482;11.238;2024-02-21T00:30:20;4.60;;;1.20;;
83634;SDS011;73596;49.482;11.238;2024-02-21T00:32:45;1.95;;;1.05;;
83634;SDS011;73596;49.482;11.238;2024-02-21T00:35:11;1.87;;;1.10;;
83634;SDS011;73596;49.482;11.238;2024-02-21T00:37:37;2.63;;;1.10;;
83634;SDS011;73596;49.482;11.238;2024-02-21T00:40:02;2.07;;;0.90;;
83634;SDS011;73596;49.482;11.238;2024-02-21T00:42:28;2.25;;;0.93;;
83634;SDS011;73596;49.482;11.238;2024-02-21T00:44:53;4.37;;;1.37;;
83634;SDS011;73596;49.482;11.238;2024-02-21T00:47:18;1.83;;;1.47;;
83634;SDS011;73596;49.482;11.238;2024-02-21T00:49:44;5.28;;;1.20;;
83634;SDS011;73596;49.482;11.238;2024-02-21T00:52:09;3.20;;;1.00;;
83634;SDS011;73596;49.482;11.238;2024-02-21T00:54:34;1.73;;;1.07;;
83634;SDS011;73596;49.482;11.238;2024-02-21T00:57:00;3.57;;;1.63;;
83634;SDS011;73596;49.482;11.238;2024-02-21T00:59:25;3.00;;;1.40;;
83634;SDS011;73596;49.482;11.238;2024-02-21T01:01:50;3.97;;;1.33;;
83634;SDS011;73596;49.482;11.238;2024-02-21T01:04:15;2.57;;;1.00;;
83634;SDS011;73596;49.482;11.238;2024-02-21T01:06:41;4.20;;;1.43;;
83634;SDS011;73596;49.482;11.238;2024-02-21T01:09:09;4.03;;;1.42;;
83634;SDS011;73596;49.482;11.238;2024-02-21T01:11:34;2.80;;;1.13;;
83634;SDS011;73596;49.482;11.238;2024-02-21T01:13:59;2.90;;;1.10;;
83634;SDS011;73596;49.482;11.238;2024-02-21T01:16:25;3.70;;;1.27;;
83634;SDS011;73596;49.482;11.238;2024-02-21T01:18:51;4.15;;;1.67;;
83634;SDS011;73596;49.482;11.238;2024-02-21T01:21:16;3.53;;;1.40;;
83634;SDS011;73596;49.482;11.238;2024-02-21T01:23:41;2.33;;;1.57;;
83634;SDS011;73596;49.482;11.238;2024-02-21T01:26:06;3.17;;;1.30;;
83634;SDS011;73596;49.482;11.238;2024-02-21T01:28:33;4.32;;;1.55;;
83634;SDS011;73596;49.482;11.238;2024-02-21T01:30:59;2.38;;;1.20;;
83634;SDS011;73596;49.482;11.238;2024-02-21T01:33:24;2.13;;;1.07;;
83634;SDS011;73596;49.482;11.238;2024-02-21T01:35:49;2.08;;;1.00;;
83634;SDS011;73596;49.482;11.238;2024-02-21T01:38:15;4.05;;;1.50;;
83634;SDS011;73596;49.482;11.238;2024-02-21T01:40:40;3.13;;;1.47;;
83634;SDS011;73596;49.482;11.238;2024-02-21T01:43:14;2.15;;;1.52;;
83634;SDS011;73596;49.482;11.238;2024-02-21T01:45:41;3.97;;;0.90;;
83634;SDS011;73596;49.482;11.238;2024-02-21T01:48:06;3.60;;;1.40;;
83634;SDS011;73596;49.482;11.238;2024-02-21T01:50:32;1.75;;;1.08;;
83634;SDS011;73596;49.482;11.238;2024-02-21T01:52:58;3.60;;;1.25;;
83634;SDS011;73596;49.482;11.238;2024-02-21T01:55:23;2.55;;;1.20;;
83634;SDS011;73596;49.482;11.238;2024-02-21T01:57:49;3.60;;;1.55;;
83634;SDS011;73596;49.482;11.238;2024-02-21T02:00:15;2.72;;;1.30;;
83634;SDS011;73596;49.482;11.238;2024-02-21T02:02:41;3.13;;;1.90;;
83634;SDS011;73596;49.482;11.238;2024-02-21T02:05:07;1.95;;;1.13;;
83634;SDS011;73596;49.482;11.238;2024-02-21T02:07:33;2.45;;;0.90;;
83634;SDS011;73596;49.482;11.238;2024-02-21T02:09:58;4.03;;;1.20;;
83634;SDS011;73596;49.482;11.238;2024-02-21T02:12:24;3.58;;;1.40;;
83634;SDS011;73596;49.482;11.238;2024-02-21T02:14:59;4.38;;;1.27;;
83634;SDS011;73596;49.482;11.238;2024-02-21T02:17:25;2.35;;;1.38;;
83634;SDS011;73596;49.482;11.238;2024-02-21T02:19:50;2.63;;;1.23;;
83634;SDS011;73596;49.482;11.238;2024-02-21T02:22:17;4.30;;;1.30;;
83634;SDS011;73596;49.482;11.238;2024-02-21T02:24:47;1.10;;;0.98;;
83634;SDS011;73596;49.482;11.238;2024-02-21T02:27:12;2.07;;;1.07;;
83634;SDS011;73596;49.482;11.238;2024-02-21T02:29:37;1.97;;;1.20;;
83634;SDS011;73596;49.482;11.238;2024-02-21T02:32:03;3.60;;;1.20;;
83634;SDS011;73596;49.482;11.238;2024-02-21T02:34:28;3.95;;;1.20;;
83634;SDS011;73596;49.482;11.238;2024-02-21T02:36:53;2.20;;;1.20;;
83634;SDS011;73596;49.482;11.238;2024-02-21T02:39:19;2.08;;;1.35;;
83634;SDS011;73596;49.482;11.238;2024-02-21T02:41:44;4.50;;;1.70;;
83634;SDS011;73596;49.482;11.238;2024-02-21T02:44:10;2.17;;;1.00;;
83634;SDS011;73596;49.482;11.238;2024-02-21T02:46:35;2.37;;;1.20;;
83634;SDS011;73596;49.482;11.238;2024-02-21T02:49:00;4.47;;;1.00;;
83634;SDS011;73596;49.482;11.238;2024-02-21T02:51:25;4.80;;;1.53;;
83634;SDS011;73596;49.482;11.238;2024-02-21T02:53:51;3.13;;;1.70;;
83634;SDS011;73596;49.482;11.238;2024-02-21T02:56:16;3.30;;;1.17;;
83634;SDS011;73596;49.482;11.238;2024-02-21T02:58:42;2.88;;;1.10;;
83634;SDS011;73596;49.482;11.238;2024-02-21T03:01:08;2.15;;;0.98;;
83634;SDS011;73596;49.482;11.238;2024-02-21T03:03:33;3.27;;;1.20;;
83634;SDS011;73596;49.482;11.238;2024-02-21T03:05:59;3.33;;;1.03;;
83634;SDS011;73596;49.482;11.238;2024-02-21T03:08:24;4.85;;;1.55;;
83634;SDS011;73596;49.482;11.238;2024-02-21T03:10:49;3.50;;;1.10;;
83634;SDS011;73596;49.482;11.238;2024-02-21T03:13:14;2.30;;;0.87;;
83634;SDS011;73596;49.482;11.238;2024-02-21T03:15:40;1.93;;;0.87;;
83634;SDS011;73596;49.482;11.238;2024-02-21T03:18:05;3.13;;;1.00;;
83634;SDS011;73596;49.482;11.238;2024-02-21T03:20:30;1.92;;;0.85;;
83634;SDS011;73596;49.482;11.238;2024-02-21T03:22:56;2.65;;;1.25;;
83634;SDS011;73596;49.482;11.238;2024-02-21T03:25:21;1.40;;;0.83;;
83634;SDS011;73596;49.482;11.238;2024-02-21T03:27:46;3.42;;;1.33;;
83634;SDS011;73596;49.482;11.238;2024-02-21T03:30:12;2.20;;;1.35;;
83634;SDS011;73596;49.482;11.238;2024-02-21T03:32:38;2.40;;;1.25;;
83634;SDS011;73596;49.482;11.238;2024-02-21T03:35:04;2.38;;;0.80;;
83634;SDS011;73596;49.482;11.238;2024-02-21T03:37:30;1.40;;;0.85;;
83634;SDS011;73596;49.482;11.238;2024-02-21T03:39:55;2.50;;;0.90;;
83634;SDS011;73596;49.482;11.238;2024-02-21T03:42:20;1.10;;;0.73;;
83634;SDS011;73596;49.482;11.238;2024-02-21T03:44:45;1.57;;;0.80;;
83634;SDS011;73596;49.482;11.238;2024-02-21T03:47:11;2.60;;;1.10;;
83634;SDS011;73596;49.482;11.238;2024-02-21T03:49:36;2.38;;;1.40;;
83634;SDS011;73596;49.482;11.238;2024-02-21T03:52:02;2.72;;;1.20;;
83634;SDS011;73596;49.482;11.238;2024-02-21T03:54:27;2.85;;;1.13;;
83634;SDS011;73596;49.482;11.238;2024-02-21T03:56:52;1.90;;;0.90;;
83634;SDS011;73596;49.482;11.238;2024-02-21T03:59:18;2.37;;;1.30;;
83634;SDS011;73596;49.482;11.238;2024-02-21T04:01:43;2.53;;;1.05;;
83634;SDS011;73596;49.482;11.238;2024-02-21T04:04:09;1.30;;;1.00;;
83634;SDS011;73596;49.482;11.238;2024-02-21T04:06:35;4.05;;;1.30;;
83634;SDS011;73596;49.482;11.238;2024-02-21T04:09:00;3.77;;;1.50;;
83634;SDS011;73596;49.482;11.238;2024-02-21T04:11:25;2.37;;;1.03;;
83634;SDS011;73596;49.482;11.238;2024-02-21T04:13:51;1.30;;;0.90;;
83634;SDS011;73596;49.482;11.238;2024-02-21T04:16:17;1.33;;;1.10;;
83634;SDS011;73596;49.482;11.238;2024-02-21T04:18:42;2.08;;;1.13;;
83634;SDS011;73596;49.482;11.238;2024-02-21T04:21:08;1.48;;;0.95;;
83634;SDS011;73596;49.482;11.238;2024-02-21T04:23:34;2.05;;;1.20;;
83634;SDS011;73596;49.482;11.238;2024-02-21T04:25:59;3.23;;;1.20;;
83634;SDS011;73596;49.482;11.238;2024-02-21T04:28:24;2.00;;;0.90;;
83634;SDS011;73596;49.482;11.238;2024-02-21T04:30:49;3.80;;;1.37;;
83634;SDS011;73596;49.482;11.238;2024-02-21T04:33:15;6.10;;;1.48;;
83634;SDS011;73596;49.482;11.238;2024-02-21T04:35:40;2.60;;;1.30;;
83634;SDS011;73596;49.482;11.238;2024-02-21T04:38:05;1.83;;;1.20;;
83634;SDS011;73596;49.482;11.238;2024-02-21T04:40:31;1.98;;;0.90;;
83634;SDS011;73596;49.482;11.238;2024-02-21T04:42:57;1.35;;;0.93;;
83634;SDS011;73596;49.482;11.238;2024-02-21T04:45:22;2.47;;;1.42;;
83634;SDS011;73596;49.482;11.238;2024-02-21T04:47:48;2.60;;;1.40;;
83634;SDS011;73596;49.482;11.238;2024-02-21T04:50:13;2.77;;;1.40;;
83634;SDS011;73596;49.482;11.238;2024-02-21T04:52:38;3.85;;;1.25;;
83634;SDS011;73596;49.482;11.238;2024-02-21T04:55:04;2.00;;;0.93;;
83634;SDS011;73596;49.482;11.238;2024-02-21T04:57:29;1.38;;;0.80;;
83634;SDS011;73596;49.482;11.238;2024-02-21T04:59:54;3.60;;;1.40;;
83634;SDS011;73596;49.482;11.238;2024-02-21T05:02:20;1.63;;;0.80;;
83634;SDS011;73596;49.482;11.238;2024-02-21T05:04:47;4.40;;;1.10;;
83634;SDS011;73596;49.482;11.238;2024-02-21T05:07:12;4.00;;;1.02;;
83634;SDS011;73596;49.482;11.238;2024-02-21T05:09:38;2.70;;;1.30;;
83634;SDS011;73596;49.482;11.238;2024-02-21T05:12:03;2.38;;;1.20;;
83634;SDS011;73596;49.482;11.238;2024-02-21T05:14:29;1.90;;;1.10;;
83634;SDS011;73596;49.482;11.238;2024-02-21T05:16:54;5.33;;;1.57;;
83634;SDS011;73596;49.482;11.238;2024-02-21T05:19:19;1.30;;;0.90;;
83634;SDS011;73596;49.482;11.238;2024-02-21T05:21:45;2.23;;;0.90;;
83634;SDS011;73596;49.482;11.238;2024-02-21T05:24:10;2.17;;;1.00;;
83634;SDS011;73596;49.482;11.238;2024-02-21T05:26:36;2.53;;;1.40;;
83634;SDS011;73596;49.482;11.238;2024-02-21T05:29:01;2.73;;;1.20;;
83634;SDS011;73596;49.482;11.238;2024-02-21T05:31:26;3.75;;;1.20;;
83634;SDS011;73596;49.482;11.238;2024-02-21T05:34:19;1.58;;;1.17;;
83634;SDS011;73596;49.482;11.238;2024-02-21T05:36:45;1.48;;;1.13;;
83634;SDS011;73596;49.482;11.238;2024-02-21T05:39:11;2.72;;;1.00;;
83634;SDS011;73596;49.482;11.238;2024-02-21T05:41:37;3.35;;;1.23;;
83634;SDS011;73596;49.482;11.238;2024-02-21T05:44:02;1.93;;;1.00;;
83634;SDS011;73596;49.482;11.238;2024-02-21T05:46:28;2.58;;;0.98;;
83634;SDS011;73596;49.482;11.238;2024-02-21T05:48:53;1.40;;;1.00;;
83634;SDS011;73596;49.482;11.238;2024-02-21T05:51:18;3.95;;;1.30;;
83634;SDS011;73596;49.482;11.238;2024-02-21T05:53:44;1.73;;;1.07;;
83634;SDS011;73596;49.482;11.238;2024-02-21T05:56:12;1.10;;;0.70;;
83634;SDS011;73596;49.482;11.238;2024-02-21T05:58:40;0.65;;;0.65;;
83634;SDS011;73596;49.482;11.238;2024-02-21T06:01:06;2.78;;;0.88;;
83634;SDS011;73596;49.482;11.238;2024-02-21T06:03:34;1.88;;;1.10;;
83634;SDS011;73596;49.482;11.238;2024-02-21T06:06:01;2.00;;;0.93;;
83634;SDS011;73596;49.482;11.238;2024-02-21T06:08:26;2.92;;;0.90;;
83634;SDS011;73596;49.482;11.238;2024-02-21T06:10:51;2.77;;;0.87;;
83634;SDS011;73596;49.482;11.238;2024-02-21T06:13:19;1.30;;;0.88;;
83634;SDS011;73596;49.482;11.238;2024-02-21T06:15:50;0.70;;;0.70;;
83634;SDS011;73596;49.482;11.238;2024-02-21T06:18:19;3.70;;;1.07;;
83634;SDS011;73596;49.482;11.238;2024-02-21T06:20:45;4.53;;;1.85;;
83634;SDS011;73596;49.482;11.238;2024-02-21T06:23:14;6.85;;;2.15;;
83634;SDS011;73596;49.482;11.238;2024-02-21T06:25:41;4.28;;;2.08;;
83634;SDS011;73596;49.482;11.238;2024-02-21T06:28:06;4.60;;;1.80;;
83634;SDS011;73596;49.482;11.238;2024-02-21T06:30:32;7.30;;;2.10;;
83634;SDS011;73596;49.482;11.238;2024-02-21T06:32:57;3.17;;;1.90;;
83634;SDS011;73596;49.482;11.238;2024-02-21T06:35:24;7.45;;;2.72;;
83634;SDS011;73596;49.482;11.238;2024-02-21T06:37:49;8.55;;;1.92;;
83634;SDS011;73596;49.482;11.238;2024-02-21T06:40:16;8.65;;;2.40;;
83634;SDS011;73596;49.482;11.238;2024-02-21T06:42:42;4.22;;;2.00;;
83634;SDS011;73596;49.482;11.238;2024-02-21T06:45:07;12.83;;;2.67;;
83634;SDS011;73596;49.482;11.238;2024-02-21T06:47:33;3.95;;;1.90;;
83634;SDS011;73596;49.482;11.238;2024-02-21T06:49:58;7.20;;;1.90;;
83634;SDS011;73596;49.482;11.238;2024-02-21T06:52:23;5.20;;;1.93;;
83634;SDS011;73596;49.482;11.238;2024-02-21T06:54:49;5.68;;;2.30;;
83634;SDS011;73596;49.482;11.238;2024-02-21T06:57:15;7.57;;;2.03;;
83634;SDS011;73596;49.482;11.238;2024-02-21T06:59:40;6.95;;;2.45;;
83634;SDS011;73596;49.482;11.238;2024-02-21T07:02:06;3.38;;;1.90;;
83634;SDS011;73596;49.482;11.238;2024-02-21T07:04:32;6.60;;;2.42;;
83634;SDS011;73596;49.482;11.238;2024-02-21T07:06:57;9.02;;;2.38;;
83634;SDS011;73596;49.482;11.238;2024-02-21T07:09:22;3.40;;;2.10;;
83634;SDS011;73596;49.482;11.238;2024-02-21T07:11:48;6.40;;;2.23;;
83634;SDS011;73596;49.482;11.238;2024-02-21T07:14:16;5.87;;;1.50;;
83634;SDS011;73596;49.482;11.238;2024-02-21T07:16:43;2.28;;;1.33;;
83634;SDS011;73596;49.482;11.238;2024-02-21T07:19:08;3.08;;;1.17;;
83634;SDS011;73596;49.482;11.238;2024-02-21T07:21:33;2.80;;;1.27;;
83634;SDS011;73596;49.482;11.238;2024-02-21T07:23:58;2.47;;;1.13;;
83634;SDS011;73596;49.482;11.238;2024-02-21T07:26:24;3.17;;;1.73;;
83634;SDS011;73596;49.482;11.238;2024-02-21T07:28:49;4.90;;;1.70;;
83634;SDS011;73596;49.482;11.238;2024-02-21T07:31:14;2.35;;;1.10;;
83634;SDS011;73596;49.482;11.238;2024-02-21T07:33:40;2.20;;;1.30;;
83634;SDS011;73596;49.482;11.238;2024-02-21T07:36:06;2.77;;;1.23;;
83634;SDS011;73596;49.482;11.238;2024-02-21T07:38:35;2.45;;;1.30;;
83634;SDS011;73596;49.482;11.238;2024-02-21T07:41:00;3.40;;;1.20;;
83634;SDS011;73596;49.482;11.238;2024-02-21T07:43:25;2.30;;;1.43;;
83634;SDS011;73596;49.482;11.238;2024-02-21T07:45:51;4.72;;;1.70;;
83634;SDS011;73596;49.482;11.238;2024-02-21T07:48:18;2.67;;;1.40;;
83634;SDS011;73596;49.482;11.238;2024-02-21T07:50:44;2.88;;;1.30;;
83634;SDS011;73596;49.482;11.238;2024-02-21T07:53:09;2.22;;;1.20;;
83634;SDS011;73596;49.482;11.238;2024-02-21T07:55:34;4.23;;;1.43;;
83634;SDS011;73596;49.482;11.238;2024-02-21T07:57:59;3.90;;;1.70;;
83634;SDS011;73596;49.482;11.238;2024-02-21T08:00:25;5.97;;;2.27;;
83634;SDS011;73596;49.482;11.238;2024-02-21T08:02:50;2.57;;;1.10;;
83634;SDS011;73596;49.482;11.238;2024-02-21T08:05:15;4.67;;;1.80;;
83634;SDS011;73596;49.482;11.238;2024-02-21T08:07:41;3.38;;;2.25;;
83634;SDS011;73596;49.482;11.238;2024-02-21T08:10:06;2.03;;;1.30;;
83634;SDS011;73596;49.482;11.238;2024-02-21T08:12:33;1.98;;;1.40;;
83634;SDS011;73596;49.482;11.238;2024-02-21T08:14:58;7.28;;;1.58;;
83634;SDS011;73596;49.482;11.238;2024-02-21T08:17:23;2.70;;;1.40;;
83634;SDS011;73596;49.482;11.238;2024-02-21T08:19:49;5.40;;;2.03;;
83634;SDS011;73596;49.482;11.238;2024-02-21T08:22:14;4.25;;;1.58;;
83634;SDS011;73596;49.482;11.238;2024-02-21T08:24:39;5.03;;;1.30;;
83634;SDS011;73596;49.482;11.238;2024-02-21T08:27:04;4.47;;;1.73;;
83634;SDS011;73596;49.482;11.238;2024-02-21T08:29:30;3.25;;;1.55;;
83634;SDS011;73596;49.482;11.238;2024-02-21T08:31:56;1.60;;;1.27;;
83634;SDS011;73596;49.482;11.238;2024-02-21T08:34:21;5.37;;;1.67;;
83634;SDS011;73596;49.482;11.238;2024-02-21T08:36:46;7.40;;;1.83;;
83634;SDS011;73596;49.482;11.238;2024-02-21T08:39:12;2.93;;;1.80;;
83634;SDS011;73596;49.482;11.238;2024-02-21T08:41:41;3.03;;;1.30;;
83634;SDS011;73596;49.482;11.238;2024-02-21T08:44:07;6.05;;;2.35;;
83634;SDS011;73596;49.482;11.238;2024-02-21T08:46:32;3.45;;;1.60;;
83634;SDS011;73596;49.482;11.238;2024-02-21T08:48:57;3.03;;;1.83;;
83634;SDS011;73596;49.482;11.238;2024-02-21T08:51:22;2.77;;;1.50;;
83634;SDS011;73596;49.482;11.238;2024-02-21T08:53:48;4.73;;;1.50;;
83634;SDS011;73596;49.482;11.238;2024-02-21T08:56:14;3.47;;;1.50;;
83634;SDS011;73596;49.482;11.238;2024-02-21T08:58:40;2.83;;;1.48;;
83634;SDS011;73596;49.482;11.238;2024-02-21T09:01:05;4.85;;;1.45;;
83634;SDS011;73596;49.482;11.238;2024-02-21T09:03:32;4.85;;;1.63;;
83634;SDS011;73596;49.482;11.238;2024-02-21T09:05:58;4.15;;;1.85;;
83634;SDS011;73596;49.482;11.238;2024-02-21T09:08:24;3.38;;;1.17;;
83634;SDS011;73596;49.482;11.238;2024-02-21T09:10:49;4.53;;;1.80;;
83634;SDS011;73596;49.482;11.238;2024-02-21T09:13:15;2.00;;;1.17;;
83634;SDS011;73596;49.482;11.238;2024-02-21T09:15:40;6.00;;;1.87;;
83634;SDS011;73596;49.482;11.238;2024-02-21T09:18:05;5.50;;;2.00;;
83634;SDS011;73596;49.482;11.238;2024-02-21T09:20:31;8.02;;;1.80;;
83634;SDS011;73596;49.482;11.238;2024-02-21T09:22:56;8.37;;;1.63;;
83634;SDS011;73596;49.482;11.238;2024-02-21T09:25:21;3.57;;;1.47;;
83634;SDS011;73596;49.482;11.238;2024-02-21T09:27:47;2.07;;;1.50;;
83634;SDS011;73596;49.482;11.238;2024-02-21T09:30:12;4.37;;;2.00;;
83634;SDS011;73596;49.482;11.238;2024-02-21T09:32:38;3.72;;;1.70;;
83634;SDS011;73596;49.482;11.238;2024-02-21T09:35:03;3.20;;;1.60;;
83634;SDS011;73596;49.482;11.238;2024-02-21T09:37:30;3.70;;;1.55;;
83634;SDS011;73596;49.482;11.238;2024-02-21T09:39:56;3.17;;;1.83;;
83634;SDS011;73596;49.482;11.238;2024-02-21T09:42:21;3.73;;;1.53;;
83634;SDS011;73596;49.482;11.238;2024-02-21T09:44:54;9.77;;;1.75;;
83634;SDS011;73596;49.482;11.238;2024-02-21T09:47:22;4.77;;;1.53;;
83634;SDS011;73596;49.482;11.238;2024-02-21T09:49:56;3.70;;;1.42;;
83634;SDS011;73596;49.482;11.238;2024-02-21T09:52:22;4.43;;;1.80;;
83634;SDS011;73596;49.482;11.238;2024-02-21T09:54:50;3.45;;;1.52;;
83634;SDS011;73596;49.482;11.238;2024-02-21T09:57:17;3.63;;;1.42;;
83634;SDS011;73596;49.482;11.238;2024-02-21T09:59:43;3.13;;;1.33;;
83634;SDS011;73596;49.482;11.238;2024-02-21T10:02:10;3.55;;;1.33;;
83634;SDS011;73596;49.482;11.238;2024-02-21T10:04:37;5.65;;;1.92;;
83634;SDS011;73596;49.482;11.238;2024-02-21T10:07:04;4.45;;;1.75;;
83634;SDS011;73596;49.482;11.238;2024-02-21T10:09:29;4.37;;;1.93;;
83634;SDS011;73596;49.482;11.238;2024-02-21T10:12:15;3.43;;;1.57;;
83634;SDS011;73596;49.482;11.238;2024-02-21T10:14:43;6.10;;;2.00;;
83634;SDS011;73596;49.482;11.238;2024-02-21T10:17:14;7.57;;;2.23;;
83634;SDS011;73596;49.482;11.238;2024-02-21T10:19:43;6.78;;;1.80;;
83634;SDS011;73596;49.482;11.238;2024-02-21T10:22:08;4.10;;;1.43;;
83634;SDS011;73596;49.482;11.238;2024-02-21T10:24:34;5.20;;;1.52;;
83634;SDS011;73596;49.482;11.238;2024-02-21T10:27:02;2.92;;;1.42;;
83634;SDS011;73596;49.482;11.238;2024-02-21T10:29:28;5.10;;;1.30;;
83634;SDS011;73596;49.482;11.238;2024-02-21T10:32:09;2.42;;;0.93;;
83634;SDS011;73596;49.482;11.238;2024-02-21T10:34:39;4.95;;;1.27;;
83634;SDS011;73596;49.482;11.238;2024-02-21T10:37:05;4.47;;;1.50;;
83634;SDS011;73596;49.482;11.238;2024-02-21T10:39:32;5.43;;;1.60;;
83634;SDS011;73596;49.482;11.238;2024-02-21T10:41:59;2.72;;;1.45;;
83634;SDS011;73596;49.482;11.238;2024-02-21T10:44:29;5.65;;;1.48;;
83634;SDS011;73596;49.482;11.238;2024-02-21T10:46:55;5.05;;;1.73;;
83634;SDS011;73596;49.482;11.238;2024-02-21T10:49:25;4.38;;;1.40;;
83634;SDS011;73596;49.482;11.238;2024-02-21T10:51:55;5.20;;;1.23;;
83634;SDS011;73596;49.482;11.238;2024-02-21T10:57:21;1.85;;;1.00;;
83634;SDS011;73596;49.482;11.238;2024-02-21T10:59:47;4.88;;;1.48;;
83634;SDS011;73596;49.482;11.238;2024-02-21T11:02:13;4.40;;;1.75;;
83634;SDS011;73596;49.482;11.238;2024-02-21T11:04:39;3.83;;;1.38;;
83634;SDS011;73596;49.482;11.238;2024-02-21T11:07:05;2.40;;;1.10;;
83634;SDS011;73596;49.482;11.238;2024-02-21T11:09:32;8.40;;;1.70;;
83634;SDS011;73596;49.482;11.238;2024-02-21T11:11:58;6.75;;;1.73;;
83634;SDS011;73596;49.482;11.238;2024-02-21T11:14:25;5.32;;;1.33;;
83634;SDS011;73596;49.482;11.238;2024-02-21T11:16:52;3.42;;;1.20;;
83634;SDS011;73596;49.482;11.238;2024-02-21T11:19:21;2.65;;;1.02;;
83634;SDS011;73596;49.482;11.238;2024-02-21T11:21:48;2.33;;;1.10;;
83634;SDS011;73596;49.482;11.238;2024-02-21T11:24:14;4.82;;;1.10;;
83634;SDS011;73596;49.482;11.238;2024-02-21T11:26:50;5.47;;;1.52;;
83634;SDS011;73596;49.482;11.238;2024-02-21T11:29:16;3.40;;;1.20;;
83634;SDS011;73596;49.482;11.238;2024-02-21T11:31:48;4.95;;;1.42;;
83634;SDS011;73596;49.482;11.238;2024-02-21T11:34:17;2.50;;;0.95;;
83634;SDS011;73596;49.482;11.238;2024-02-21T11:36:49;3.60;;;1.40;;
83634;SDS011;73596;49.482;11.238;2024-02-21T11:39:23;4.43;;;1.48;;
83634;SDS011;73596;49.482;11.238;2024-02-21T11:42:00;2.35;;;1.20;;
83634;SDS011;73596;49.482;11.238;2024-02-21T11:44:30;3.50;;;1.35;;
83634;SDS011;73596;49.482;11.238;2024-02-21T11:46:56;3.58;;;1.25;;
83634;SDS011;73596;49.482;11.238;2024-02-21T11:49:21;5.28;;;1.27;;
83634;SDS011;73596;49.482;11.238;2024-02-21T11:51:46;6.90;;;1.33;;
83634;SDS011;73596;49.482;11.238;2024-02-21T11:54:12;3.90;;;1.10;;
83634;SDS011;73596;49.482;11.238;2024-02-21T11:56:41;2.85;;;1.15;;
83634;SDS011;73596;49.482;11.238;2024-02-21T11:59:06;5.23;;;1.10;;
83634;SDS011;73596;49.482;11.238;2024-02-21T12:01:31;1.93;;;1.00;;
83634;SDS011;73596;49.482;11.238;2024-02-21T12:03:57;2.45;;;1.10;;
83634;SDS011;73596;49.482;11.238;2024-02-21T12:06:22;4.22;;;1.25;;
83634;SDS011;73596;49.482;11.238;2024-02-21T12:08:48;3.80;;;1.20;;
83634;SDS011;73596;49.482;11.238;2024-02-21T12:11:22;4.20;;;0.97;;
83634;SDS011;73596;49.482;11.238;2024-02-21T12:13:58;2.55;;;1.20;;
83634;SDS011;73596;49.482;11.238;2024-02-21T12:16:29;4.90;;;0.90;;
83634;SDS011;73596;49.482;11.238;2024-02-21T12:18:56;3.63;;;1.60;;
83634;SDS011;73596;49.482;11.238;2024-02-21T12:21:25;5.03;;;1.15;;
83634;SDS011;73596;49.482;11.238;2024-02-21T12:23:53;3.88;;;1.15;;
83634;SDS011;73596;49.482;11.238;2024-02-21T12:26:19;5.30;;;1.50;;
83634;SDS011;73596;49.482;11.238;2024-02-21T12:28:44;4.30;;;1.60;;
83634;SDS011;73596;49.482;11.238;2024-02-21T12:31:10;3.42;;;1.20;;
83634;SDS011;73596;49.482;11.238;2024-02-21T12:33:35;3.08;;;0.75;;
83634;SDS011;73596;49.482;11.238;2024-02-21T12:36:01;4.82;;;1.00;;
83634;SDS011;73596;49.482;11.238;2024-02-21T12:38:26;6.10;;;1.20;;
83634;SDS011;73596;49.482;11.238;2024-02-21T12:40:51;3.17;;;1.00;;
83634;SDS011;73596;49.482;11.238;2024-02-21T12:43:17;5.60;;;1.30;;
83634;SDS011;73596;49.482;11.238;2024-02-21T12:45:43;5.30;;;1.45;;
83634;SDS011;73596;49.482;11.238;2024-02-21T12:48:08;3.92;;;1.05;;
83634;SDS011;73596;49.482;11.238;2024-02-21T12:50:34;2.70;;;1.00;;
83634;SDS011;73596;49.482;11.238;2024-02-21T12:52:59;4.40;;;0.87;;
83634;SDS011;73596;49.482;11.238;2024-02-21T12:55:25;2.83;;;1.30;;
83634;SDS011;73596;49.482;11.238;2024-02-21T12:57:50;2.20;;;1.30;;
83634;SDS011;73596;49.482;11.238;2024-02-21T13:00:15;4.17;;;1.27;;
83634;SDS011;73596;49.482;11.238;2024-02-21T13:02:41;4.07;;;1.23;;
83634;SDS011;73596;49.482;11.238;2024-02-21T13:05:07;5.80;;;1.13;;
83634;SDS011;73596;49.482;11.238;2024-02-21T13:07:33;3.38;;;0.98;;
83634;SDS011;73596;49.482;11.238;2024-02-21T13:09:58;5.97;;;1.25;;
83634;SDS011;73596;49.482;11.238;2024-02-21T13:12:24;2.17;;;0.87;;
83634;SDS011;73596;49.482;11.238;2024-02-21T13:14:51;1.70;;;0.90;;
83634;SDS011;73596;49.482;11.238;2024-02-21T13:17:16;2.65;;;0.85;;
83634;SDS011;73596;49.482;11.238;2024-02-21T13:19:42;4.50;;;1.30;;
83634;SDS011;73596;49.482;11.238;2024-02-21T13:22:07;3.47;;;1.23;;
83634;SDS011;73596;49.482;11.238;2024-02-21T13:24:32;1.95;;;1.10;;
83634;SDS011;73596;49.482;11.238;2024-02-21T13:26:58;5.07;;;1.13;;
83634;SDS011;73596;49.482;11.238;2024-02-21T13:29:23;2.23;;;0.90;;
83634;SDS011;73596;49.482;11.238;2024-02-21T13:31:48;2.80;;;0.90;;
83634;SDS011;73596;49.482;11.238;2024-02-21T13:34:15;2.22;;;0.80;;
83634;SDS011;73596;49.482;11.238;2024-02-21T13:36:40;2.75;;;0.82;;
83634;SDS011;73596;49.482;11.238;2024-02-21T13:39:05;3.27;;;1.50;;
83634;SDS011;73596;49.482;11.238;2024-02-21T13:41:32;5.70;;;0.90;;
83634;SDS011;73596;49.482;11.238;2024-02-21T13:43:58;3.28;;;1.23;;
83634;SDS011;73596;49.482;11.238;2024-02-21T13:46:25;3.00;;;1.10;;
83634;SDS011;73596;49.482;11.238;2024-02-21T13:48:52;2.78;;;1.00;;
83634;SDS011;73596;49.482;11.238;2024-02-21T13:51:26;1.73;;;0.93;;
83634;SDS011;73596;49.482;11.238;2024-02-21T13:53:52;2.83;;;1.05;;
83634;SDS011;73596;49.482;11.238;2024-02-21T13:56:17;5.07;;;1.30;;
83634;SDS011;73596;49.482;11.238;2024-02-21T13:58:42;2.20;;;0.90;;
83634;SDS011;73596;49.482;11.238;2024-02-21T14:01:07;1.67;;;0.80;;
83634;SDS011;73596;49.482;11.238;2024-02-21T14:03:34;2.17;;;0.80;;
83634;SDS011;73596;49.482;11.238;2024-02-21T14:05:59;2.17;;;1.00;;
83634;SDS011;73596;49.482;11.238;2024-02-21T14:08:24;2.30;;;0.90;;
83634;SDS011;73596;49.482;11.238;2024-02-21T14:10:50;3.77;;;1.10;;
83634;SDS011;73596;49.482;11.238;2024-02-21T14:13:15;1.07;;;0.60;;
83634;SDS011;73596;49.482;11.238;2024-02-21T14:15:43;4.00;;;0.98;;
83634;SDS011;73596;49.482;11.238;2024-02-21T14:18:10;1.67;;;0.85;;
83634;SDS011;73596;49.482;11.238;2024-02-21T14:20:36;2.00;;;0.63;;
83634;SDS011;73596;49.482;11.238;2024-02-21T14:23:01;2.53;;;0.77;;
83634;SDS011;73596;49.482;11.238;2024-02-21T14:25:26;4.20;;;1.00;;
83634;SDS011;73596;49.482;11.238;2024-02-21T14:27:51;2.07;;;1.43;;
83634;SDS011;73596;49.482;11.238;2024-02-21T14:30:17;2.03;;;1.10;;